Time;durP1;ratioP1;P1;durP2;ratioP2;P2;SDS_P1;SDS_P2;PMS_P1;PMS_P2;Temp;Humidity;BMP_temperature;BMP_pressure;BME280_temperature;BME280_humidity;BME280_pressure;Samples;Min_cycle;Max_cycle;Signal;HPM_P1;HPM_P2
2023/05/24 00:02:06;;;;;;;8.05;4.78;;;;;;;18.33;60.56;99006.91;5149265;27;20043;-75
2023/05/24 00:04:33;;;;;;;5.65;4.50;;;;;;;17.83;60.85;98943.53;5148646;27;20392;-75
2023/05/24 00:07:02;;;;;;;5.85;4.57;;;;;;;18.11;60.93;98976.69;5149110;27;20359;-75
2023/05/24 00:09:29;;;;;;;5.75;4.30;;;;;;;18.31;60.43;99006.19;5148580;27;20080;-75
2023/05/24 00:11:56;;;;;;;5.40;4.05;;;;;;;17.96;60.25;98945.94;5148501;27;20110;-75
2023/05/24 00:14:22;;;;;;;5.10;4.30;;;;;;;18.30;60.54;98999.13;5148652;27;20051;-75
2023/05/24 00:16:49;;;;;;;5.20;4.25;;;;;;;18.09;60.22;98973.31;5148559;27;20039;-75
2023/05/24 00:19:17;;;;;;;4.20;3.63;;;;;;;18.28;60.73;99004.66;5148332;27;20045;-75
2023/05/24 00:21:44;;;;;;;4.95;3.67;;;;;;;18.16;60.48;98978.97;5148586;27;20043;-75
2023/05/24 00:24:12;;;;;;;6.40;4.20;;;;;;;18.28;60.48;99010.84;5148283;27;20034;-76
2023/05/24 00:26:40;;;;;;;4.30;3.28;;;;;;;18.26;60.38;99003.94;5148168;27;20031;-75
2023/05/24 00:29:06;;;;;;;6.03;4.50;;;;;;;18.24;60.60;99001.41;5148482;27;20047;-75
2023/05/24 00:31:33;;;;;;;6.25;4.72;;;;;;;18.23;60.07;98997.03;5148376;27;20084;-73
2023/05/24 00:34:00;;;;;;;5.28;3.65;;;;;;;17.93;60.23;98963.16;5147244;27;20039;-73
2023/05/24 00:36:27;;;;;;;4.55;4.10;;;;;;;18.24;60.08;99001.41;5147009;27;20318;-73
2023/05/24 00:38:54;;;;;;;7.07;3.45;;;;;;;18.23;59.75;98998.84;5148519;27;20035;-73
2023/05/24 00:41:22;;;;;;;4.15;3.70;;;;;;;18.20;59.98;98999.13;5147692;27;20043;-75
2023/05/24 00:43:49;;;;;;;4.35;3.30;;;;;;;18.18;60.18;99003.81;5147851;27;20103;-75
2023/05/24 00:46:19;;;;;;;4.25;3.72;;;;;;;18.17;59.53;99002.94;5146947;27;20199;-75
2023/05/24 00:48:46;;;;;;;4.70;3.25;;;;;;;17.33;59.65;98856.16;5146929;27;20298;-76
2023/05/24 00:51:14;;;;;;;4.60;3.47;;;;;;;18.13;59.62;99006.91;5146894;27;20039;-76
2023/05/24 00:53:43;;;;;;;3.67;3.25;;;;;;;18.13;59.77;99011.41;5146871;27;20313;-75
2023/05/24 00:56:11;;;;;;;5.15;3.75;;;;;;;18.10;59.47;99004.50;5147851;27;20317;-75
2023/05/24 00:58:39;;;;;;;7.00;5.50;;;;;;;18.06;59.85;99011.13;5147585;27;20042;-75
2023/05/24 01:01:07;;;;;;;6.93;3.58;;;;;;;18.03;59.92;99000.69;5147809;27;20106;-75
2023/05/24 01:03:34;;;;;;;5.05;3.53;;;;;;;17.98;60.07;99010.13;5147506;27;20168;-75
2023/05/24 01:06:03;;;;;;;4.28;2.92;;;;;;;17.95;59.94;99011.25;5146613;27;20324;-75
2023/05/24 01:08:46;;;;;;;3.33;2.70;;;;;;;17.68;59.10;98963.69;5147939;27;20034;-75
2023/05/24 01:11:21;;;;;;;4.28;3.30;;;;;;;17.86;59.83;99010.28;5147337;27;20054;-75
2023/05/24 01:13:58;;;;;;;4.25;3.13;;;;;;;17.16;59.48;98892.47;5147317;27;20035;-75
2023/05/24 01:16:31;;;;;;;6.03;3.40;;;;;;;17.84;59.68;99012.25;5146385;27;20043;-75
2023/05/24 01:19:12;;;;;;;6.28;4.32;;;;;;;17.82;59.32;99016.03;5147808;27;20041;-73
2023/05/24 01:21:50;;;;;;;5.15;3.65;;;;;;;17.23;59.12;98917.75;5147641;27;20053;-72
2023/05/24 01:24:25;;;;;;;3.92;3.17;;;;;;;17.77;59.63;99012.94;5147515;27;20039;-72
2023/05/24 01:27:07;;;;;;;3.78;2.72;;;;;;;17.61;58.97;98992.03;5145813;27;20049;-72
2023/05/24 01:29:35;;;;;;;3.45;2.80;;;;;;;17.73;59.66;99019.56;5147373;27;20043;-72
2023/05/24 01:32:02;;;;;;;3.65;3.00;;;;;;;17.71;59.95;99016.16;5146171;27;20047;-73
2023/05/24 01:34:29;;;;;;;3.53;2.63;;;;;;;17.66;59.82;99021.09;5147550;27;20053;-72
2023/05/24 01:36:56;;;;;;;3.63;2.85;;;;;;;17.64;59.52;99018.56;5147481;27;20091;-73
2023/05/24 01:39:27;;;;;;;4.18;3.00;;;;;;;15.57;59.35;98691.63;5147194;27;20051;-75
2023/05/24 01:42:05;;;;;;;4.00;3.40;;;;;;;17.32;59.57;98981.19;5145868;27;20043;-76
2023/05/24 01:44:39;;;;;;;4.35;2.78;;;;;;;17.52;59.67;99017.78;5147038;27;20084;-75
2023/05/24 01:47:16;;;;;;;4.55;2.90;;;;;;;17.47;59.99;99022.69;5145916;27;20092;-76
2023/05/24 01:49:49;;;;;;;4.60;3.40;;;;;;;17.46;59.84;99023.69;5145892;27;20035;-75
2023/05/24 01:52:22;;;;;;;3.60;2.90;;;;;;;17.31;59.81;99001.78;5146181;27;20039;-75
2023/05/24 01:54:52;;;;;;;5.60;3.40;;;;;;;17.44;59.93;99020.28;5146802;27;20043;-75
2023/05/24 01:57:19;;;;;;;4.68;3.60;;;;;;;17.42;60.15;99016.91;5147174;27;20043;-76
2023/05/24 01:59:49;;;;;;;5.70;3.42;;;;;;;17.41;59.75;99009.84;5146636;28;20035;-76
2023/05/24 02:02:16;;;;;;;4.90;3.40;;;;;;;17.37;59.80;99015.63;5147153;28;20070;-75
2023/05/24 02:04:43;;;;;;;4.00;3.15;;;;;;;17.37;59.62;99013.78;5146030;28;20043;-75
2023/05/24 02:07:10;;;;;;;4.00;3.17;;;;;;;17.35;59.59;99026.47;5146535;28;20038;-74
2023/05/24 02:09:37;;;;;;;4.20;3.15;;;;;;;17.30;59.73;99020.66;5146816;28;20039;-74
2023/05/24 02:12:04;;;;;;;5.07;3.70;;;;;;;17.27;59.64;99019.09;5146517;28;20061;-74
2023/05/24 02:14:31;;;;;;;4.35;3.20;;;;;;;17.25;59.87;99022.91;5147078;28;20047;-74
2023/05/24 02:16:59;;;;;;;3.88;3.47;;;;;;;17.13;59.60;99006.03;5145492;28;20096;-74
2023/05/24 02:19:26;;;;;;;4.22;3.55;;;;;;;17.21;59.88;99021.47;5146395;28;20043;-74
2023/05/24 02:21:53;;;;;;;4.20;3.25;;;;;;;17.19;59.83;99023.41;5146457;28;20039;-75
2023/05/24 02:24:20;;;;;;;3.47;2.90;;;;;;;17.18;59.85;99025.22;5146671;28;20291;-75
2023/05/24 02:26:47;;;;;;;4.25;3.05;;;;;;;17.18;59.86;99024.38;5146396;28;20042;-75
2023/05/24 02:29:13;;;;;;;4.93;3.17;;;;;;;17.14;59.91;99017.59;5146968;27;20035;-75
2023/05/24 02:31:40;;;;;;;4.10;3.58;;;;;;;17.11;59.83;99023.22;5145487;28;20039;-74
2023/05/24 02:34:08;;;;;;;3.78;3.20;;;;;;;17.11;59.68;99025.91;5146876;28;20095;-75
2023/05/24 02:36:36;;;;;;;4.68;3.60;;;;;;;17.08;59.64;99029.69;5147505;27;20030;-75
2023/05/24 02:39:03;;;;;;;4.20;3.22;;;;;;;16.31;60.06;98932.91;5149481;27;20183;-74
2023/05/24 02:41:30;;;;;;;3.92;3.33;;;;;;;17.06;59.97;99038.84;5149943;27;20077;-75
2023/05/24 02:43:57;;;;;;;5.13;3.78;;;;;;;17.04;59.88;99040.81;5150462;27;20043;-75
2023/05/24 02:46:23;;;;;;;5.32;3.50;;;;;;;17.00;60.14;99041.06;5150214;27;20305;-75
2023/05/24 02:48:50;;;;;;;4.22;3.17;;;;;;;16.99;59.74;99038.53;5150426;27;20051;-75
2023/05/24 02:51:18;;;;;;;4.30;3.53;;;;;;;16.97;60.25;99045.84;5150374;27;20051;-72
2023/05/24 02:53:45;;;;;;;4.00;3.22;;;;;;;16.83;59.79;99030.97;5150067;27;20039;-74
2023/05/24 02:56:12;;;;;;;4.32;3.65;;;;;;;16.93;59.90;99044.41;5149082;27;20099;-73
2023/05/24 02:58:40;;;;;;;4.85;3.45;;;;;;;16.90;59.79;99045.53;5149131;27;20039;-73
2023/05/24 03:01:07;;;;;;;4.05;3.25;;;;;;;16.88;59.41;99054.66;5150479;27;20046;-74
2023/05/24 03:03:34;;;;;;;4.57;3.15;;;;;;;15.44;59.54;98803.97;5149062;27;20058;-74
2023/05/24 03:06:00;;;;;;;3.88;2.90;;;;;;;16.82;59.32;99048.00;5150384;27;20176;-74
2023/05/24 03:08:29;;;;;;;4.28;3.42;;;;;;;16.78;59.48;99046.56;5149758;27;20039;-74
2023/05/24 03:10:55;;;;;;;3.80;3.20;;;;;;;16.75;59.78;99043.31;5149972;27;20111;-73
2023/05/24 03:13:22;;;;;;;4.75;3.22;;;;;;;16.72;59.59;99044.44;5149970;27;20039;-73
2023/05/24 03:15:49;;;;;;;4.45;3.40;;;;;;;16.67;59.78;99052.84;5149895;27;20043;-73
2023/05/24 03:18:15;;;;;;;5.45;4.10;;;;;;;16.64;59.85;99053.06;5150065;27;20047;-73
2023/05/24 03:20:42;;;;;;;4.60;3.72;;;;;;;16.63;60.17;99055.88;5148643;27;20047;-74
2023/05/24 03:23:09;;;;;;;3.50;2.90;;;;;;;16.60;60.34;99058.81;5147983;27;20053;-74
2023/05/24 03:25:37;;;;;;;4.43;4.00;;;;;;;16.58;60.08;99058.09;5149997;27;20042;-73
2023/05/24 03:28:04;;;;;;;5.40;3.55;;;;;;;16.57;60.06;99059.06;5149668;27;20038;-73
2023/05/24 03:30:31;;;;;;;5.68;3.40;;;;;;;16.57;59.81;99069.78;5149341;27;20039;-74
2023/05/24 03:32:58;;;;;;;3.88;2.92;;;;;;;16.56;59.85;99060.91;5149846;27;20039;-74
2023/05/24 03:35:25;;;;;;;4.38;3.17;;;;;;;16.57;59.75;99065.28;5149189;27;20322;-74
2023/05/24 03:37:52;;;;;;;4.88;3.47;;;;;;;16.58;59.67;99068.78;5149087;27;20043;-74
2023/05/24 03:40:19;;;;;;;5.20;3.60;;;;;;;16.59;59.93;99062.47;5149434;27;20046;-74
2023/05/24 03:42:47;;;;;;;4.05;3.63;;;;;;;16.58;59.64;99058.94;5148831;27;20071;-74
2023/05/24 03:45:14;;;;;;;5.97;3.55;;;;;;;16.58;59.62;99063.44;5149637;27;20073;-74
2023/05/24 03:47:40;;;;;;;4.60;3.53;;;;;;;16.57;59.84;99069.78;5148458;27;20043;-73
2023/05/24 03:50:08;;;;;;;4.65;4.00;;;;;;;16.57;60.02;99075.13;5149314;27;20180;-73
2023/05/24 03:52:34;;;;;;;6.05;3.72;;;;;;;16.58;59.57;99071.47;5148930;27;20130;-74
2023/05/24 03:55:01;;;;;;;5.78;3.90;;;;;;;16.59;59.54;99078.50;5148806;27;20042;-74
2023/05/24 03:57:28;;;;;;;6.05;4.30;;;;;;;16.59;59.88;99070.50;5147831;27;20035;-74
2023/05/24 03:59:56;;;;;;;5.85;4.47;;;;;;;16.60;60.04;99077.53;5149021;27;20276;-73
2023/05/24 04:02:22;;;;;;;5.60;3.50;;;;;;;16.60;60.14;99083.75;5148934;27;20043;-74
2023/05/24 04:04:49;;;;;;;3.42;2.97;;;;;;;16.60;59.81;99089.09;5148612;27;20047;-73
2023/05/24 04:07:16;;;;;;;6.43;3.92;;;;;;;16.59;59.87;99075.84;5148893;27;20299;-75
2023/05/24 04:09:43;;;;;;;4.25;3.50;;;;;;;16.61;59.96;99082.75;5147704;27;20050;-74
2023/05/24 04:12:10;;;;;;;4.55;3.45;;;;;;;16.52;59.77;99059.47;5149057;27;20044;-74
2023/05/24 04:14:37;;;;;;;4.78;3.28;;;;;;;16.67;60.02;99076.06;5148519;27;20046;-74
2023/05/24 04:17:06;;;;;;;4.78;3.75;;;;;;;16.68;60.16;99085.81;5148869;27;20054;-74
2023/05/24 04:19:33;;;;;;;5.03;4.28;;;;;;;16.71;59.64;99090.03;5147514;27;20260;-74
2023/05/24 04:22:00;;;;;;;4.50;3.88;;;;;;;16.73;60.09;99088.09;5148590;27;20076;-74
2023/05/24 04:24:26;;;;;;;4.35;3.65;;;;;;;16.75;59.83;99089.66;5148337;27;20043;-74
2023/05/24 04:26:53;;;;;;;4.50;3.60;;;;;;;16.75;60.02;99081.63;5147350;27;20215;-74
2023/05/24 04:29:20;;;;;;;5.32;3.63;;;;;;;16.77;59.67;99081.50;5148616;27;20047;-71
2023/05/24 04:31:47;;;;;;;5.68;3.63;;;;;;;16.81;59.65;99086.47;5148136;27;20043;-71
2023/05/24 04:34:16;;;;;;;5.05;3.78;;;;;;;16.81;60.02;99093.63;5148049;27;20299;-73
2023/05/24 04:36:43;;;;;;;6.10;3.63;;;;;;;16.81;59.59;99094.47;5147922;27;20051;-73
2023/05/24 04:39:10;;;;;;;5.25;3.72;;;;;;;16.75;59.86;99075.44;5147129;27;20345;-74
2023/05/24 04:41:37;;;;;;;6.60;4.40;;;;;;;16.11;59.78;98976.50;5148000;27;20050;-74
2023/05/24 04:44:04;;;;;;;5.90;4.32;;;;;;;16.89;59.43;99102.72;5148084;27;20123;-74
2023/05/24 04:46:31;;;;;;;5.35;4.28;;;;;;;16.92;59.69;99105.13;5146976;27;20039;-74
2023/05/24 04:48:57;;;;;;;5.00;4.10;;;;;;;16.95;59.48;99102.19;5148078;27;20079;-73
2023/05/24 04:51:26;;;;;;;5.60;4.40;;;;;;;16.98;59.67;99109.97;5147771;27;20295;-74
2023/05/24 04:53:52;;;;;;;6.32;5.05;;;;;;;17.00;59.23;99104.47;5147911;27;20045;-74
2023/05/24 04:56:19;;;;;;;7.38;4.03;;;;;;;16.97;59.08;99110.94;5146805;27;20035;-74
2023/05/24 04:58:46;;;;;;;5.10;3.90;;;;;;;16.99;59.40;99116.16;5146616;27;20353;-74
2023/05/24 05:01:13;;;;;;;3.92;3.30;;;;;;;16.98;59.23;99109.13;5145660;27;20203;-74
2023/05/24 05:03:39;;;;;;;5.40;3.90;;;;;;;17.05;59.27;99125.50;5148068;27;20073;-74
2023/05/24 05:06:06;;;;;;;7.82;4.13;;;;;;;17.08;59.09;99123.41;5146583;27;20039;-74
2023/05/24 05:08:34;;;;;;;4.47;3.47;;;;;;;17.10;58.85;99124.13;5147433;27;20049;-75
2023/05/24 05:11:01;;;;;;;4.93;4.07;;;;;;;17.14;59.01;99127.38;5147271;27;20039;-74
2023/05/24 05:13:28;;;;;;;7.75;3.50;;;;;;;17.16;58.78;99122.75;5147819;27;20068;-74
2023/05/24 05:15:55;;;;;;;5.57;3.45;;;;;;;17.16;59.07;99128.09;5147252;27;20045;-75
2023/05/24 05:18:21;;;;;;;4.28;3.50;;;;;;;17.18;59.02;99129.66;5147397;27;20039;-74
2023/05/24 05:20:49;;;;;;;8.48;4.63;;;;;;;17.21;58.96;99128.59;5146606;27;20061;-74
2023/05/24 05:23:16;;;;;;;7.25;5.05;;;;;;;17.23;58.56;99132.84;5147395;27;20095;-74
2023/05/24 05:25:44;;;;;;;6.60;4.35;;;;;;;17.27;58.67;99136.09;5147309;27;20054;-75
2023/05/24 05:28:11;;;;;;;6.43;4.20;;;;;;;17.26;58.76;99131.72;5147214;27;20069;-74
2023/05/24 05:30:38;;;;;;;4.72;3.63;;;;;;;17.27;58.56;99136.94;5147019;27;20110;-74
2023/05/24 05:33:05;;;;;;;4.07;3.35;;;;;;;17.27;58.31;99134.28;5147165;27;20332;-74
2023/05/24 05:35:32;;;;;;;4.30;3.50;;;;;;;17.29;58.65;99143.03;5147411;27;20060;-74
2023/05/24 05:37:59;;;;;;;4.82;3.78;;;;;;;17.33;58.42;99140.94;5147457;27;20142;-74
2023/05/24 05:40:26;;;;;;;4.25;3.40;;;;;;;17.36;58.00;99132.63;5147268;27;20031;-74
2023/05/24 05:42:54;;;;;;;4.28;3.53;;;;;;;17.37;58.37;99142.34;5146752;27;20063;-74
2023/05/24 05:45:21;;;;;;;3.83;3.25;;;;;;;17.36;58.30;99143.34;5146482;27;20039;-74
2023/05/24 05:47:47;;;;;;;7.35;3.80;;;;;;;17.35;58.11;99143.47;5146757;27;20074;-74
2023/05/24 05:50:14;;;;;;;4.93;4.28;;;;;;;17.32;57.98;99152.63;5146965;27;20051;-74
2023/05/24 05:52:41;;;;;;;4.88;3.70;;;;;;;17.29;57.98;99144.84;5146882;27;20043;-74
2023/05/24 05:55:10;;;;;;;5.60;3.40;;;;;;;17.29;57.75;99152.88;5146691;27;20039;-74
2023/05/24 05:57:37;;;;;;;4.80;3.35;;;;;;;17.26;58.19;99145.13;5146602;27;20042;-74
2023/05/24 06:00:07;;;;;;;4.07;3.28;;;;;;;17.29;57.83;99158.25;5146874;27;20317;-74
2023/05/24 06:02:34;;;;;;;6.47;3.30;;;;;;;17.29;57.74;99147.53;5146646;28;20043;-74
2023/05/24 06:05:01;;;;;;;4.63;3.33;;;;;;;17.36;57.94;99158.56;5146738;28;20043;-74
2023/05/24 06:07:29;;;;;;;4.95;3.15;;;;;;;17.35;57.60;99163.06;5146762;28;20035;-72
2023/05/24 06:09:56;;;;;;;5.30;3.47;;;;;;;17.27;57.24;99154.84;5146751;28;20356;-72
2023/05/24 06:12:22;;;;;;;3.92;3.30;;;;;;;17.33;57.64;99159.69;5148972;27;20092;-72
2023/05/24 06:14:51;;;;;;;4.47;3.47;;;;;;;17.35;57.63;99160.38;5151072;27;20049;-73
2023/05/24 06:17:22;;;;;;;4.10;3.08;;;;;;;17.38;57.18;99167.31;5150648;27;20058;-74
2023/05/24 06:19:50;;;;;;;4.30;2.97;;;;;;;17.39;57.39;99161.81;5150697;27;20048;-74
2023/05/24 06:22:16;;;;;;;3.85;3.15;;;;;;;17.42;57.37;99169.59;5151192;27;20042;-74
2023/05/24 06:24:43;;;;;;;3.92;3.25;;;;;;;17.46;57.32;99165.66;5149705;27;20035;-74
2023/05/24 06:27:10;;;;;;;3.17;2.58;;;;;;;17.49;57.44;99170.75;5150607;27;20218;-74
2023/05/24 06:29:37;;;;;;;3.65;2.78;;;;;;;17.31;57.25;99129.50;5150830;27;20190;-74
2023/05/24 06:32:04;;;;;;;3.92;2.63;;;;;;;17.33;56.99;99137.41;5149550;27;20031;-72
2023/05/24 06:34:33;;;;;;;3.67;2.08;;;;;;;17.58;56.82;99169.97;5149566;27;20092;-71
2023/05/24 06:37:01;;;;;;;4.63;2.75;;;;;;;17.64;56.81;99176.66;5150512;27;20283;-71
2023/05/24 06:39:28;;;;;;;3.15;2.60;;;;;;;17.66;56.60;99174.69;5150360;27;20382;-71
2023/05/24 06:41:54;;;;;;;3.97;2.55;;;;;;;17.72;56.82;99170.63;5150479;27;20065;-72
2023/05/24 06:44:22;;;;;;;3.45;2.35;;;;;;;16.96;56.61;99038.78;5150162;27;20055;-73
2023/05/24 06:46:48;;;;;;;4.22;2.30;;;;;;;17.85;56.37;99172.09;5150762;27;20050;-74
2023/05/24 06:49:15;;;;;;;3.40;2.40;;;;;;;17.86;55.82;99179.16;5149602;27;20039;-74
2023/05/24 06:51:44;;;;;;;3.15;2.33;;;;;;;17.91;55.77;99186.78;5150549;27;20053;-74
2023/05/24 06:54:11;;;;;;;3.65;2.40;;;;;;;18.00;56.22;99179.78;5149047;27;20046;-74
2023/05/24 06:56:38;;;;;;;4.40;2.85;;;;;;;18.09;55.86;99176.28;5150553;27;20031;-74
2023/05/24 06:59:05;;;;;;;4.50;2.90;;;;;;;18.17;55.65;99181.81;5149809;27;20039;-74
2023/05/24 07:01:32;;;;;;;3.67;2.70;;;;;;;17.69;55.16;99088.66;5149045;27;20047;-74
2023/05/24 07:03:59;;;;;;;3.53;2.33;;;;;;;18.35;55.13;99190.03;5150339;27;20043;-74
2023/05/24 07:06:26;;;;;;;4.63;2.70;;;;;;;18.45;54.90;99188.22;5148859;27;20113;-74
2023/05/24 07:08:54;;;;;;;3.33;2.55;;;;;;;18.57;54.25;99192.50;5149761;27;20031;-74
2023/05/24 07:11:21;;;;;;;3.45;2.25;;;;;;;18.67;54.27;99188.00;5150217;27;20083;-74
2023/05/24 07:13:48;;;;;;;2.85;2.03;;;;;;;18.76;53.96;99194.38;5149706;27;20058;-74
2023/05/24 07:16:15;;;;;;;2.70;2.20;;;;;;;18.77;53.26;99188.84;5148835;27;20039;-74
2023/05/24 07:18:41;;;;;;;7.32;2.20;;;;;;;18.42;52.88;99124.09;5149450;27;20098;-74
2023/05/24 07:21:08;;;;;;;3.00;2.10;;;;;;;18.86;52.23;99157.63;5149710;27;20130;-74
2023/05/24 07:23:35;;;;;;;2.90;1.90;;;;;;;19.23;51.99;99190.81;5148050;27;20123;-74
2023/05/24 07:26:04;;;;;;;3.05;2.03;;;;;;;19.35;51.49;99194.19;5149377;27;20062;-74
2023/05/24 07:28:31;;;;;;;2.97;2.13;;;;;;;19.44;51.21;99182.59;5148151;27;20036;-74
2023/05/24 07:30:57;;;;;;;3.17;2.10;;;;;;;19.66;50.99;99181.41;5149675;27;20106;-74
2023/05/24 07:33:24;;;;;;;4.57;3.05;;;;;;;19.89;50.46;99186.47;5149607;27;20039;-74
2023/05/24 07:35:51;;;;;;;3.35;2.45;;;;;;;20.08;50.38;99183.69;5149758;27;20042;-74
2023/05/24 07:38:18;;;;;;;3.30;2.22;;;;;;;19.96;49.87;99150.75;5149688;27;20349;-74
2023/05/24 07:40:45;;;;;;;4.70;2.13;;;;;;;20.16;49.77;99151.50;5148288;27;20031;-74
2023/05/24 07:43:13;;;;;;;3.50;1.88;;;;;;;20.53;48.98;99181.06;5148893;27;20051;-74
2023/05/24 07:45:40;;;;;;;2.70;1.80;;;;;;;20.63;48.80;99170.22;5148417;27;20370;-75
2023/05/24 07:48:06;;;;;;;3.03;2.22;;;;;;;20.09;48.47;99084.00;5148808;27;20077;-74
2023/05/24 07:50:33;;;;;;;3.88;2.88;;;;;;;20.79;48.76;99183.84;5148910;27;20088;-72
2023/05/24 07:53:00;;;;;;;3.22;2.20;;;;;;;20.84;48.20;99186.91;5147818;27;20031;-73
2023/05/24 07:55:27;;;;;;;3.10;2.03;;;;;;;20.73;48.26;99197.91;5147922;27;20295;-73
2023/05/24 07:57:55;;;;;;;5.40;2.72;;;;;;;20.64;48.47;99194.28;5148903;27;20035;-73
2023/05/24 08:00:24;;;;;;;3.55;2.47;;;;;;;20.63;48.08;99189.91;5147850;27;20230;-72
2023/05/24 08:02:51;;;;;;;4.13;2.83;;;;;;;20.65;48.51;99187.06;5149255;27;20039;-72
2023/05/24 08:05:17;;;;;;;3.20;2.10;;;;;;;20.79;48.13;99183.84;5147661;27;20287;-74
2023/05/24 08:07:44;;;;;;;3.95;2.63;;;;;;;20.75;47.71;99156.38;5149166;27;20072;-72
2023/05/24 08:10:12;;;;;;;2.53;1.73;;;;;;;21.05;47.40;99186.63;5148683;27;20279;-73
2023/05/24 08:12:39;;;;;;;3.42;2.10;;;;;;;21.16;47.30;99191.78;5148669;27;20322;-73
2023/05/24 08:15:07;;;;;;;5.15;2.60;;;;;;;20.76;46.67;99116.81;5148921;27;20035;-72
2023/05/24 08:17:35;;;;;;;3.10;2.13;;;;;;;21.24;46.59;99191.84;5147554;27;20328;-73
2023/05/24 08:20:05;;;;;;;4.43;2.47;;;;;;;21.13;46.73;99157.06;5147728;27;20039;-72
2023/05/24 08:22:32;;;;;;;6.97;2.85;;;;;;;21.44;46.54;99182.56;5147380;27;20046;-72
2023/05/24 08:24:59;;;;;;;3.40;2.28;;;;;;;21.55;46.34;99189.53;5149124;27;20034;-73
2023/05/24 08:27:27;;;;;;;5.68;3.15;;;;;;;21.75;45.97;99196.41;5148768;27;20124;-73
2023/05/24 08:29:54;;;;;;;7.78;2.60;;;;;;;21.89;45.93;99192.31;5148445;27;20116;-73
2023/05/24 08:32:21;;;;;;;2.80;1.98;;;;;;;22.07;45.52;99189.53;5148236;27;20039;-73
2023/05/24 08:34:49;;;;;;;4.22;2.65;;;;;;;22.20;45.07;99187.22;5148336;27;20065;-73
2023/05/24 08:37:18;;;;;;;4.18;2.22;;;;;;;21.96;44.88;99127.75;5148172;27;20228;-73
2023/05/24 08:39:45;;;;;;;5.95;3.13;;;;;;;22.17;44.88;99140.81;5148576;27;20035;-73
2023/05/24 08:42:12;;;;;;;3.85;2.40;;;;;;;22.57;44.93;99191.47;5146551;27;20058;-72
2023/05/24 08:44:45;;;;;;;3.65;1.98;;;;;;;22.46;43.33;99146.69;5148246;27;20175;-72
2023/05/24 08:47:13;;;;;;;31.38;6.00;;;;;;;22.81;44.13;99177.16;5147821;27;20043;-74
2023/05/24 08:49:41;;;;;;;15.65;3.45;;;;;;;22.69;43.52;99138.81;5148130;27;20338;-72
2023/05/24 08:52:10;;;;;;;33.85;6.20;;;;;;;22.93;43.23;99170.41;5148139;27;20031;-73
2023/05/24 08:54:38;;;;;;;44.08;7.57;;;;;;;22.97;43.50;99175.31;5146692;27;20043;-72
2023/05/24 08:57:06;;;;;;;47.38;8.73;;;;;;;23.04;43.39;99165.53;5147927;27;20318;-72
2023/05/24 08:59:33;;;;;;;85.40;13.57;;;;;;;23.19;43.10;99178.34;5147948;27;20031;-73
2023/05/24 09:02:01;;;;;;;276.90;29.95;;;;;;;23.35;42.88;99175.69;5146442;27;20045;-73
2023/05/24 09:04:29;;;;;;;74.75;10.90;;;;;;;23.48;42.47;99185.97;5147961;27;20039;-73
2023/05/24 09:06:56;;;;;;;14.48;3.88;;;;;;;23.52;42.17;99184.63;5146487;27;20047;-73
2023/05/24 09:09:27;;;;;;;5.38;2.75;;;;;;;23.34;41.75;99155.91;5146737;27;20084;-73
2023/05/24 09:11:59;;;;;;;3.75;2.15;;;;;;;23.43;41.73;99148.63;5147778;27;20043;-72
2023/05/24 09:14:26;;;;;;;4.40;2.47;;;;;;;22.77;41.55;99027.22;5146971;27;20207;-73
2023/05/24 09:16:53;;;;;;;5.97;2.97;;;;;;;23.86;41.74;99189.78;5147441;27;20046;-73
2023/05/24 09:19:20;;;;;;;4.22;2.20;;;;;;;23.88;41.85;99191.31;5146220;27;20035;-73
2023/05/24 09:21:48;;;;;;;4.22;2.08;;;;;;;24.01;41.29;99182.66;5147568;27;20051;-73
2023/05/24 09:24:16;;;;;;;2.55;1.70;;;;;;;24.14;41.23;99182.94;5146271;27;20039;-73
2023/05/24 09:26:45;;;;;;;3.08;1.70;;;;;;;24.18;41.06;99191.56;5147387;27;20299;-72
2023/05/24 09:29:12;;;;;;;2.95;1.70;;;;;;;24.19;41.35;99185.97;5147315;27;20054;-73
2023/05/24 09:31:39;;;;;;;4.45;1.90;;;;;;;23.99;40.82;99182.84;5146707;27;20047;-73
2023/05/24 09:34:10;;;;;;;5.30;1.60;;;;;;;23.93;40.38;99188.91;5146890;27;20035;-73
2023/05/24 09:36:41;;;;;;;5.03;2.22;;;;;;;23.79;39.95;99194.19;5146080;27;20073;-73
2023/05/24 09:39:10;;;;;;;2.97;1.83;;;;;;;23.76;41.36;99194.53;5147015;27;20321;-73
2023/05/24 09:41:37;;;;;;;2.60;1.75;;;;;;;23.09;41.35;99099.31;5145437;27;20047;-73
2023/05/24 09:44:06;;;;;;;3.03;1.77;;;;;;;23.49;41.39;99207.44;5145645;27;20035;-73
2023/05/24 09:46:37;;;;;;;5.28;1.77;;;;;;;23.51;40.78;99188.34;5145261;27;20084;-75
2023/05/24 09:49:05;;;;;;;3.00;1.90;;;;;;;23.57;41.32;99196.59;5146724;27;20050;-73
2023/05/24 09:51:36;;;;;;;4.30;2.38;;;;;;;23.36;41.19;99161.97;5146343;27;20038;-73
2023/05/24 09:54:04;;;;;;;4.78;2.15;;;;;;;22.71;41.34;99026.03;5145668;27;20035;-73
2023/05/24 09:56:33;;;;;;;3.10;2.70;;;;;;;23.74;40.46;99191.16;5145776;27;20055;-73
2023/05/24 09:59:07;;;;;;;6.20;2.88;;;;;;;23.71;39.28;99202.34;5146463;27;20035;-73
2023/05/24 10:01:34;;;;;;;5.28;1.90;;;;;;;23.74;41.01;99208.25;5145659;27;20202;-73
2023/05/24 10:04:05;;;;;;;5.38;2.42;;;;;;;23.76;40.72;99202.66;5145634;28;20039;-73
2023/05/24 10:06:36;;;;;;;3.22;1.73;;;;;;;23.76;40.32;99216.19;5147001;28;20044;-72
2023/05/24 10:09:06;;;;;;;3.85;2.05;;;;;;;23.81;40.86;99206.53;5145712;28;20266;-73
2023/05/24 10:11:34;;;;;;;7.90;2.38;;;;;;;23.88;40.63;99202.13;5146602;28;20088;-73
2023/05/24 10:14:02;;;;;;;3.33;2.20;;;;;;;23.90;40.62;99200.09;5146687;28;20062;-73
2023/05/24 10:16:30;;;;;;;4.32;2.20;;;;;;;23.88;40.48;99198.56;5146960;28;20069;-73
2023/05/24 10:18:57;;;;;;;3.92;1.90;;;;;;;23.83;40.76;99196.38;5146596;27;20028;-74
2023/05/24 10:21:24;;;;;;;5.45;3.47;;;;;;;23.78;40.69;99201.47;5145634;28;20036;-74
2023/05/24 10:23:58;;;;;;;3.63;2.30;;;;;;;23.72;38.80;99193.19;5145535;28;20043;-74
2023/05/24 10:26:29;;;;;;;3.38;1.90;;;;;;;23.61;41.00;99202.53;5146110;28;20114;-73
2023/05/24 10:29:01;;;;;;;4.93;2.03;;;;;;;23.64;40.89;99199.47;5145206;28;20092;-74
2023/05/24 10:31:33;;;;;;;5.88;2.10;;;;;;;23.59;40.53;99189.16;5146688;28;20046;-74
2023/05/24 10:34:03;;;;;;;3.55;2.17;;;;;;;23.53;40.34;99189.00;5145486;28;20039;-74
2023/05/24 10:36:31;;;;;;;2.88;2.10;;;;;;;23.51;40.55;99191.03;5146253;28;20114;-74
2023/05/24 10:38:58;;;;;;;4.07;2.97;;;;;;;23.43;40.71;99193.75;5146439;28;20043;-74
2023/05/24 10:41:26;;;;;;;4.05;2.92;;;;;;;23.41;40.80;99193.09;5146655;28;20047;-74
2023/05/24 10:43:53;;;;;;;5.28;3.10;;;;;;;23.14;40.84;99159.09;5145693;28;20043;-73
2023/05/24 10:46:21;;;;;;;4.68;2.78;;;;;;;23.26;40.91;99204.56;5146193;28;20066;-74
2023/05/24 10:49:01;;;;;;;5.47;2.75;;;;;;;23.19;39.76;99208.09;5146269;28;20035;-74
2023/05/24 10:51:34;;;;;;;6.30;2.53;;;;;;;23.10;40.82;99209.09;5145115;28;20047;-74
2023/05/24 10:54:16;;;;;;;4.45;2.60;;;;;;;23.07;40.00;99210.28;5140656;28;20035;-74
2023/05/24 10:56:48;;;;;;;6.60;3.60;;;;;;;23.07;40.57;99204.88;5144550;27;20057;-74
2023/05/24 10:59:24;;;;;;;6.30;3.55;;;;;;;21.33;40.25;98920.53;5149846;27;20039;-74
2023/05/24 11:01:56;;;;;;;5.35;2.20;;;;;;;22.97;40.56;99210.44;5149014;27;20089;-74
2023/05/24 11:04:26;;;;;;;7.97;2.70;;;;;;;22.92;41.08;99210.09;5150412;27;20050;-73
2023/05/24 11:06:57;;;;;;;5.93;2.90;;;;;;;22.91;40.97;99202.16;5150110;27;20043;-73
2023/05/24 11:09:26;;;;;;;4.03;2.88;;;;;;;22.92;41.27;99201.16;5148865;27;20065;-70
2023/05/24 11:11:56;;;;;;;5.43;3.22;;;;;;;22.42;41.01;99148.84;5148841;27;20070;-70
2023/05/24 11:14:27;;;;;;;3.50;2.60;;;;;;;22.94;40.93;99212.63;5148406;27;20035;-70
2023/05/24 11:16:54;;;;;;;17.25;4.80;;;;;;;22.94;40.86;99199.13;5149585;27;20053;-70
2023/05/24 11:19:23;;;;;;;7.10;3.13;;;;;;;22.95;40.67;99200.81;5149302;27;20041;-72
2023/05/24 11:21:57;;;;;;;8.88;3.25;;;;;;;22.93;40.67;99209.09;5148483;27;20318;-71
2023/05/24 11:24:25;;;;;;;4.53;3.20;;;;;;;22.92;41.13;99193.88;5149543;27;20047;-70
2023/05/24 11:26:52;;;;;;;8.02;2.90;;;;;;;22.49;41.29;99140.94;5149436;27;20051;-70
2023/05/24 11:29:21;;;;;;;7.05;3.85;;;;;;;22.64;41.40;99162.78;5148738;27;20058;-71
2023/05/24 11:31:53;;;;;;;5.25;2.72;;;;;;;22.54;40.72;99171.03;5148391;27;20173;-73
2023/05/24 11:34:20;;;;;;;8.15;3.80;;;;;;;22.67;41.34;99198.41;5149641;27;20106;-73
2023/05/24 11:36:47;;;;;;;4.80;2.80;;;;;;;22.39;41.51;99142.91;5149500;27;20043;-74
2023/05/24 11:39:16;;;;;;;5.55;2.95;;;;;;;22.61;41.56;99193.66;5149509;27;20102;-74